Aviation Digital Data Service (ADDS)

Output produced by METARs form (1423 UTC 27 March 2017)
found at http://aviationweather.gov/adds/metars/
 
KPBG 271329Z 2713/2812 15012KT P6SM OVC035 
     TEMPO 2713/2717 6SM -RA BR OVC030 
     FM271900 15006KT P6SM VCSH OVC030 
     FM280000 15004KT P6SM OVC025 
     FM280500 00000KT 4SM BR OVC008 
     FM281100 00000KT P6SM VCSH OVC020